Time;durP1;ratioP1;P1;durP2;ratioP2;P2;SDS_P1;SDS_P2;PMS_P1;PMS_P2;Temp;Humidity;BMP_temperature;BMP_pressure;BME280_temperature;BME280_humidity;BME280_pressure;Samples;Min_cycle;Max_cycle;Signal;HPM_P1;HPM_P2
2022/03/28 00:00:19;;;;;;;1.38;0.40;;;;;;;4.56;52.03;102862.16;5024928;28;20033;-81
2022/03/28 00:02:45;;;;;;;2.17;0.55;;;;;;;4.23;52.73;102862.47;5040555;28;20037;-80
2022/03/28 00:05:16;;;;;;;3.10;1.20;;;;;;;4.58;52.21;102857.03;5042405;28;20032;-81
2022/03/28 00:07:43;;;;;;;2.63;0.77;;;;;;;4.48;52.27;102865.50;5045274;28;20051;-79
2022/03/28 00:10:11;;;;;;;3.05;1.17;;;;;;;4.56;52.18;102856.13;5048853;28;20051;-76
2022/03/28 00:12:38;;;;;;;3.40;0.80;;;;;;;4.50;52.42;102854.31;5026858;28;20486;-79
2022/03/28 00:15:06;;;;;;;4.28;1.52;;;;;;;4.39;52.82;102856.72;5023208;28;20029;-80
2022/03/28 00:17:33;;;;;;;6.97;1.50;;;;;;;4.42;52.86;102851.59;5016414;28;20044;-78
2022/03/28 00:20:00;;;;;;;5.18;1.88;;;;;;;4.50;53.02;102850.84;5042276;28;20617;-82
2022/03/28 00:22:25;;;;;;;3.10;1.50;;;;;;;4.54;52.69;102843.19;5040066;28;20413;-79
2022/03/28 00:24:51;;;;;;;5.78;2.00;;;;;;;4.24;53.87;102845.22;5022235;28;20033;-79
2022/03/28 00:27:18;;;;;;;3.20;1.45;;;;;;;4.79;52.93;102841.84;5027364;28;20048;-79
2022/03/28 00:29:44;;;;;;;5.50;2.15;;;;;;;4.74;52.53;102848.66;5026674;28;20037;-78
2022/03/28 00:32:11;;;;;;;5.68;1.73;;;;;;;4.74;52.61;102843.47;5040954;28;20051;-79
2022/03/28 00:34:37;;;;;;;2.78;0.93;;;;;;;4.48;53.62;102839.59;5024119;28;20033;-79
2022/03/28 00:37:04;;;;;;;3.67;1.15;;;;;;;4.59;53.13;102838.06;5023140;28;20063;-81
2022/03/28 00:39:30;;;;;;;2.45;1.30;;;;;;;4.55;52.85;102841.44;5028241;28;20090;-80
2022/03/28 00:41:56;;;;;;;1.73;0.80;;;;;;;4.45;53.77;102837.81;5022816;28;20652;-81
2022/03/28 00:44:21;;;;;;;2.67;1.27;;;;;;;4.47;53.50;102832.66;5007753;28;20124;-81
2022/03/28 00:46:47;;;;;;;2.80;0.95;;;;;;;4.34;53.81;102827.28;5041356;28;20033;-79
2022/03/28 00:49:13;;;;;;;1.38;0.57;;;;;;;4.37;53.68;102831.66;5026809;28;20604;-78
2022/03/28 00:51:38;;;;;;;2.97;1.00;;;;;;;4.41;52.98;102823.97;5044305;28;20036;-80
2022/03/28 00:54:06;;;;;;;1.45;0.52;;;;;;;4.60;52.54;102814.75;5022794;28;20466;-79
2022/03/28 00:56:32;;;;;;;1.48;0.68;;;;;;;4.50;53.19;102817.16;5030721;28;20106;-77
2022/03/28 00:58:58;;;;;;;3.15;0.70;;;;;;;4.58;52.69;102807.81;5022768;28;20411;-81
2022/03/28 01:01:25;;;;;;;1.77;0.80;;;;;;;4.53;53.03;102806.88;5027566;28;20036;-80
2022/03/28 01:03:51;;;;;;;2.80;1.00;;;;;;;4.52;53.08;102803.44;5042937;28;20045;-79
2022/03/28 01:06:17;;;;;;;2.97;0.68;;;;;;;4.24;53.58;102799.50;5034238;28;20552;-81
2022/03/28 01:08:42;;;;;;;2.33;0.60;;;;;;;4.48;53.45;102798.19;5046074;28;20037;-81
2022/03/28 01:11:09;;;;;;;3.08;0.93;;;;;;;4.59;52.91;102791.44;5045840;28;20458;-79
2022/03/28 01:13:38;;;;;;;5.22;0.90;;;;;;;4.52;53.58;102794.75;5029497;28;20041;-79
2022/03/28 01:16:04;;;;;;;2.25;0.80;;;;;;;4.42;53.93;102784.25;5033267;28;20044;-80
2022/03/28 01:18:31;;;;;;;1.48;0.70;;;;;;;4.39;53.40;102779.03;5048170;28;20048;-80
2022/03/28 01:20:58;;;;;;;1.73;0.77;;;;;;;4.48;53.90;102780.06;5025916;28;20504;-79
2022/03/28 01:23:24;;;;;;;2.08;0.40;;;;;;;4.07;54.09;102775.03;5047190;28;20072;-79
2022/03/28 01:25:51;;;;;;;2.63;0.52;;;;;;;4.24;53.48;102771.03;5043940;28;20036;-78
2022/03/28 01:28:18;;;;;;;1.95;0.32;;;;;;;4.35;53.58;102768.63;5043243;28;20456;-81
2022/03/28 01:30:43;;;;;;;1.02;0.40;;;;;;;4.36;53.79;102760.88;5011156;28;20049;-80
2022/03/28 01:33:09;;;;;;;0.95;0.30;;;;;;;4.36;53.17;102768.66;5028486;28;20040;-79
2022/03/28 01:35:38;;;;;;;1.42;0.25;;;;;;;4.13;54.03;102759.63;5026733;28;20060;-80
2022/03/28 01:38:06;;;;;;;2.08;0.45;;;;;;;4.21;53.40;102752.88;5026762;28;20046;-78
2022/03/28 01:40:34;;;;;;;1.05;0.30;;;;;;;4.07;53.20;102746.56;5027553;28;20067;-79
2022/03/28 01:42:59;;;;;;;0.88;0.25;;;;;;;4.12;52.90;102747.50;5041765;28;20483;-81
2022/03/28 01:45:25;;;;;;;1.25;0.63;;;;;;;4.21;52.91;102734.75;5047176;28;20054;-80
2022/03/28 01:47:51;;;;;;;1.38;0.55;;;;;;;4.20;52.72;102732.97;5025098;28;20447;-78
2022/03/28 01:50:17;;;;;;;1.10;0.40;;;;;;;4.18;53.22;102719.16;5047311;28;20528;-78
2022/03/28 01:52:43;;;;;;;0.82;0.38;;;;;;;4.25;53.09;102712.34;5045466;28;20036;-79
2022/03/28 01:55:09;;;;;;;4.13;0.82;;;;;;;4.24;52.73;102711.50;5044811;28;20029;-76
2022/03/28 01:57:37;;;;;;;4.05;1.40;;;;;;;4.52;52.33;102719.66;5025071;28;20068;-78
2022/03/28 02:00:05;;;;;;;2.70;0.85;;;;;;;4.45;52.56;102726.47;5009295;28;20479;-81
2022/03/28 02:02:34;;;;;;;;;;;;;;;4.12;52.72;102706.09;5022558;28;20057;-80
2022/03/28 02:05:00;;;;;;;3.22;1.67;;;;;;;4.37;52.42;102716.00;5048005;28;20637;-80
2022/03/28 02:07:25;;;;;;;4.78;2.03;;;;;;;4.42;52.57;102705.72;5044434;28;20458;-78
2022/03/28 02:09:51;;;;;;;5.38;2.45;;;;;;;4.58;52.59;102712.00;5032168;28;20028;-76
2022/03/28 02:12:17;;;;;;;4.50;2.00;;;;;;;4.64;52.03;102706.91;5045093;28;20647;-78
2022/03/28 02:14:43;;;;;;;5.57;2.28;;;;;;;4.56;52.68;102703.31;5046962;28;20311;-78
2022/03/28 02:17:08;;;;;;;4.68;2.03;;;;;;;4.19;53.71;102705.38;5040861;28;20091;-78
2022/03/28 02:19:34;;;;;;;4.95;2.28;;;;;;;4.16;53.69;102705.31;5043177;28;20064;-78
2022/03/28 02:22:00;;;;;;;4.13;1.50;;;;;;;3.85;54.73;102701.34;5042056;28;20033;-79
2022/03/28 02:24:26;;;;;;;3.28;1.65;;;;;;;4.01;54.14;102699.03;5026838;28;20033;-78
2022/03/28 02:26:51;;;;;;;3.15;2.13;;;;;;;4.02;53.61;102695.59;5028777;28;20132;-80
2022/03/28 02:29:17;;;;;;;1.98;0.82;;;;;;;4.09;53.27;102698.28;5029269;28;20037;-79
2022/03/28 02:31:44;;;;;;;1.52;0.80;;;;;;;4.18;52.76;102701.88;5024090;28;20056;-78
2022/03/28 02:34:09;;;;;;;1.80;0.88;;;;;;;4.18;52.45;102707.06;5025821;28;20049;-79
2022/03/28 02:36:35;;;;;;;5.18;0.80;;;;;;;4.22;52.78;102697.66;5026752;28;20021;-80
2022/03/28 02:39:00;;;;;;;1.40;0.80;;;;;;;3.98;53.14;102698.13;5025760;28;20696;-79
2022/03/28 02:41:25;;;;;;;2.33;0.60;;;;;;;4.14;53.24;102688.88;5034304;28;20037;-80
2022/03/28 02:43:52;;;;;;;1.40;0.57;;;;;;;4.21;53.15;102690.75;5023114;28;20040;-80
2022/03/28 02:46:18;;;;;;;1.65;0.73;;;;;;;4.30;53.23;102690.88;5044135;28;20071;-80
2022/03/28 02:48:43;;;;;;;1.73;0.30;;;;;;;3.70;54.03;102686.44;5024965;28;20048;-80
2022/03/28 02:51:09;;;;;;;1.48;0.68;;;;;;;4.09;53.27;102687.94;5045395;28;20029;-80
2022/03/28 02:53:34;;;;;;;1.83;0.60;;;;;;;4.08;54.24;102688.81;5028403;28;20095;-78
2022/03/28 02:56:00;;;;;;;2.03;0.70;;;;;;;4.32;53.10;102693.47;5042136;28;20083;-81
2022/03/28 02:58:25;;;;;;;2.40;0.35;;;;;;;4.12;53.54;102690.56;5041859;28;20056;-80
2022/03/28 03:00:51;;;;;;;0.50;0.10;;;;;;;3.70;54.60;102687.31;5047441;28;20032;-79
2022/03/28 03:03:16;;;;;;;0.35;0.10;;;;;;;3.89;53.80;102687.63;5029187;28;20044;-79
2022/03/28 03:05:43;;;;;;;0.47;0.10;;;;;;;4.06;53.20;102680.16;5042908;28;20032;-81
2022/03/28 03:08:09;;;;;;;0.47;0.10;;;;;;;4.05;53.33;102673.22;5042289;28;20410;-79
2022/03/28 03:10:34;;;;;;;0.80;0.30;;;;;;;3.88;53.98;102666.06;5025757;28;20033;-81
2022/03/28 03:13:00;;;;;;;0.90;0.25;;;;;;;4.16;53.86;102666.47;5024861;28;20045;-79
2022/03/28 03:15:25;;;;;;;1.10;0.15;;;;;;;4.19;53.51;102666.56;5025966;28;20033;-79
2022/03/28 03:17:51;;;;;;;0.65;0.20;;;;;;;4.26;53.54;102672.69;5043978;28;20064;-81
2022/03/28 03:20:16;;;;;;;3.60;0.20;;;;;;;4.12;53.26;102669.88;5045852;28;20052;-79
2022/03/28 03:22:42;;;;;;;1.33;0.20;;;;;;;4.23;53.11;102681.28;5024180;28;20040;-80
2022/03/28 03:25:08;;;;;;;1.55;0.38;;;;;;;4.43;53.19;102672.09;5044639;28;20021;-75
2022/03/28 03:27:38;;;;;;;2.15;0.20;;;;;;;4.32;53.33;102668.47;5037011;28;20053;-77
2022/03/28 03:30:10;;;;;;;0.75;0.20;;;;;;;4.43;53.17;102666.91;5038647;28;20032;-81
2022/03/28 03:32:36;;;;;;;1.10;0.60;;;;;;;4.45;52.86;102664.31;5031130;28;20094;-79
2022/03/28 03:35:03;;;;;;;1.15;0.40;;;;;;;4.39;53.30;102665.13;5025881;28;20766;-79
2022/03/28 03:37:29;;;;;;;2.03;0.40;;;;;;;4.35;53.42;102655.56;5041921;28;20036;-78
2022/03/28 03:39:55;;;;;;;1.10;0.30;;;;;;;4.50;53.40;102656.63;5041649;28;20105;-82
2022/03/28 03:42:20;;;;;;;0.82;0.20;;;;;;;4.57;53.49;102648.97;5026419;28;20045;-80
2022/03/28 03:44:46;;;;;;;1.67;0.80;;;;;;;4.52;53.34;102649.75;5042788;28;20037;-80
2022/03/28 03:47:12;;;;;;;0.88;0.40;;;;;;;4.57;53.46;102653.28;5026651;28;20059;-78
2022/03/28 03:49:37;;;;;;;3.90;0.45;;;;;;;4.22;53.78;102656.22;5021820;28;20120;-81
2022/03/28 03:52:03;;;;;;;1.40;0.60;;;;;;;4.44;53.86;102652.25;5043764;28;20037;-80
2022/03/28 03:54:30;;;;;;;1.73;0.75;;;;;;;4.57;54.17;102651.56;5046646;28;20511;-78
2022/03/28 03:56:55;;;;;;;2.08;0.80;;;;;;;4.65;53.31;102638.69;5040360;28;20044;-80
2022/03/28 03:59:21;;;;;;;2.80;0.55;;;;;;;4.56;53.08;102641.19;5042781;28;20135;-78
2022/03/28 04:01:46;;;;;;;1.80;0.50;;;;;;;4.39;53.68;102639.22;5041028;28;20039;-79
2022/03/28 04:04:12;;;;;;;1.50;0.80;;;;;;;4.29;54.23;102642.53;5025420;28;20814;-76
2022/03/28 04:06:39;;;;;;;4.03;0.30;;;;;;;4.29;54.03;102639.94;5025967;28;20108;-78
2022/03/28 04:09:05;;;;;;;1.40;0.30;;;;;;;4.23;54.10;102632.09;5001780;28;20037;-80
2022/03/28 04:11:30;;;;;;;0.50;0.20;;;;;;;4.16;54.40;102631.16;5025517;28;20025;-78
2022/03/28 04:13:57;;;;;;;0.98;0.10;;;;;;;3.94;55.01;102629.94;5041626;28;20072;-80
2022/03/28 04:16:23;;;;;;;0.40;0.05;;;;;;;3.79;54.61;102619.34;5027700;28;20033;-79
2022/03/28 04:18:49;;;;;;;0.30;0.10;;;;;;;3.63;55.31;102622.50;5021997;28;20107;-79
2022/03/28 04:21:15;;;;;;;0.30;0.05;;;;;;;3.69;55.19;102630.38;5022393;28;20025;-78
2022/03/28 04:23:41;;;;;;;0.85;0.20;;;;;;;3.73;55.00;102621.81;5022820;28;20052;-76
2022/03/28 04:26:06;;;;;;;1.08;0.13;;;;;;;3.75;55.25;102622.72;5023014;28;20025;-80
2022/03/28 04:28:32;;;;;;;0.50;0.15;;;;;;;3.65;55.22;102620.81;5023708;28;20045;-79
2022/03/28 04:30:58;;;;;;;1.50;0.20;;;;;;;3.91;54.67;102627.28;5041841;28;20525;-80
2022/03/28 04:33:23;;;;;;;0.55;0.10;;;;;;;3.88;54.68;102603.97;5040945;28;20038;-80
2022/03/28 04:35:49;;;;;;;1.55;0.10;;;;;;;3.66;55.08;102614.81;5022360;28;20490;-79
2022/03/28 04:38:14;;;;;;;0.85;0.43;;;;;;;3.90;54.80;102610.03;5025440;28;20048;-80
2022/03/28 04:40:40;;;;;;;0.80;0.20;;;;;;;3.83;55.06;102610.78;5007794;28;20094;-79
2022/03/28 04:43:07;;;;;;;1.75;0.30;;;;;;;3.93;54.91;102604.91;5040373;28;20048;-79
2022/03/28 04:45:33;;;;;;;1.85;0.30;;;;;;;3.78;54.83;102604.66;5027625;28;20219;-79
2022/03/28 04:47:59;;;;;;;0.80;0.30;;;;;;;3.69;55.29;102599.34;5027294;28;20059;-84
2022/03/28 04:50:25;;;;;;;0.47;0.10;;;;;;;3.87;54.47;102611.69;5045897;28;20029;-84
2022/03/28 04:52:51;;;;;;;2.15;0.15;;;;;;;3.93;54.57;102601.44;5021810;28;20117;-83
2022/03/28 04:55:16;;;;;;;1.92;0.28;;;;;;;3.86;54.27;102595.31;5029760;28;20033;-79
2022/03/28 04:57:42;;;;;;;0.68;0.20;;;;;;;3.85;54.84;102603.94;5022466;28;20044;-81
2022/03/28 05:00:09;;;;;;;0.90;0.25;;;;;;;3.98;54.31;102589.44;5044700;28;20029;-85
2022/03/28 05:02:36;;;;;;;0.90;0.22;;;;;;;4.12;54.52;102592.22;5023340;28;20568;-80
2022/03/28 05:05:03;;;;;;;2.08;0.75;;;;;;;4.24;54.07;102587.25;5011780;28;20025;-83
2022/03/28 05:07:30;;;;;;;1.50;0.52;;;;;;;4.13;53.97;102601.75;5027701;28;20053;-82
2022/03/28 05:09:57;;;;;;;1.92;0.52;;;;;;;4.15;54.01;102602.66;5038629;28;20124;-85
2022/03/28 05:12:23;;;;;;;1.00;0.50;;;;;;;4.21;54.12;102598.44;5005370;28;20056;-83
2022/03/28 05:14:50;;;;;;;1.65;0.52;;;;;;;4.48;53.59;102596.19;5046321;28;20037;-81
2022/03/28 05:17:26;;;;;;;3.20;0.60;;;;;;;4.43;53.35;102584.06;5024102;28;20127;-80
2022/03/28 05:19:53;;;;;;;1.50;0.75;;;;;;;4.58;53.66;102587.69;5020706;28;20461;-82
2022/03/28 05:22:19;;;;;;;1.15;0.60;;;;;;;4.52;53.44;102588.50;5024660;28;20717;-79
2022/03/28 05:24:46;;;;;;;2.08;1.13;;;;;;;4.57;53.15;102581.66;5010772;28;20032;-83
2022/03/28 05:27:12;;;;;;;2.03;0.90;;;;;;;4.60;53.27;102581.66;5041066;28;20036;-84
2022/03/28 05:29:38;;;;;;;1.75;0.80;;;;;;;4.67;53.00;102571.38;5043627;28;20025;-83
2022/03/28 05:32:04;;;;;;;2.67;1.08;;;;;;;4.73;52.99;102572.34;5009245;28;20044;-84
2022/03/28 05:34:30;;;;;;;1.73;0.90;;;;;;;4.80;53.12;102579.31;5023280;28;20101;-83
2022/03/28 05:37:05;;;;;;;4.47;0.90;;;;;;;4.79;53.16;102569.81;5027071;28;20056;-83
2022/03/28 05:39:36;;;;;;;2.50;1.02;;;;;;;4.93;52.95;102569.13;5045674;28;20417;-81
2022/03/28 05:42:03;;;;;;;1.70;1.05;;;;;;;4.98;52.43;102565.72;5042977;28;20028;-79
2022/03/28 05:44:30;;;;;;;1.55;1.10;;;;;;;4.91;52.51;102555.28;5034898;28;20025;-80
2022/03/28 05:46:55;;;;;;;2.22;0.90;;;;;;;4.95;53.07;102562.25;5049144;28;20047;-78
2022/03/28 05:49:24;;;;;;;1.45;0.75;;;;;;;4.98;52.58;102563.13;5014333;28;20032;-83
2022/03/28 05:51:52;;;;;;;1.55;0.88;;;;;;;5.07;52.24;102567.53;5027495;28;20119;-82
2022/03/28 05:54:18;;;;;;;4.20;1.13;;;;;;;5.17;52.61;102564.19;5025448;28;20029;-81
2022/03/28 05:56:43;;;;;;;2.75;1.88;;;;;;;5.03;51.73;102558.00;5023215;28;20119;-82
2022/03/28 05:59:09;;;;;;;2.80;0.80;;;;;;;4.85;52.01;102563.81;5025156;28;20117;-84
2022/03/28 06:01:35;;;;;;;2.00;1.25;;;;;;;4.92;52.30;102567.38;5040408;28;20585;-81
2022/03/28 06:04:01;;;;;;;2.65;1.55;;;;;;;5.02;52.37;102567.50;5008998;28;20051;-85
2022/03/28 06:06:27;;;;;;;2.45;1.00;;;;;;;5.02;51.82;102558.88;5029710;28;20040;-82
2022/03/28 06:08:53;;;;;;;2.63;1.40;;;;;;;5.06;51.50;102552.88;5026915;28;20037;-78
2022/03/28 06:11:20;;;;;;;3.33;1.35;;;;;;;5.10;52.31;102544.28;5038133;28;20037;-82
2022/03/28 06:13:46;;;;;;;28.00;10.52;;;;;;;5.15;51.98;102534.81;5031672;28;20567;-83
2022/03/28 06:16:11;;;;;;;29.40;10.02;;;;;;;5.33;51.56;102543.59;5043968;28;20359;-81
2022/03/28 06:18:37;;;;;;;20.55;10.27;;;;;;;5.48;51.59;102535.06;5042708;28;20044;-85
2022/03/28 06:21:03;;;;;;;15.27;7.32;;;;;;;5.50;51.42;102522.97;5034443;28;20020;-83
2022/03/28 06:23:29;;;;;;;14.10;7.25;;;;;;;5.54;51.47;102520.41;5026760;28;20080;-83
2022/03/28 06:25:55;;;;;;;9.23;3.65;;;;;;;5.62;52.00;102518.75;5039743;28;20510;-83
2022/03/28 06:28:21;;;;;;;4.93;2.33;;;;;;;5.49;51.81;102532.50;5026192;28;20080;-83
2022/03/28 06:30:47;;;;;;;2.67;2.08;;;;;;;5.59;51.76;102526.53;5023722;28;20095;-82
2022/03/28 06:33:13;;;;;;;4.32;2.03;;;;;;;5.63;51.30;102530.00;5023484;28;20038;-81
2022/03/28 06:35:40;;;;;;;3.03;2.38;;;;;;;5.71;51.26;102525.75;5040366;28;20142;-81
2022/03/28 06:38:07;;;;;;;2.63;2.00;;;;;;;5.67;51.23;102524.84;5024706;28;20132;-83
2022/03/28 06:40:33;;;;;;;7.45;2.20;;;;;;;5.59;51.20;102517.84;5041526;28;20060;-81
2022/03/28 06:42:58;;;;;;;2.00;1.27;;;;;;;5.58;50.71;102508.34;5024669;28;20072;-84
2022/03/28 06:45:24;;;;;;;3.15;1.75;;;;;;;5.60;50.15;102515.28;5024854;28;20069;-81
2022/03/28 06:47:51;;;;;;;2.67;1.58;;;;;;;5.69;50.15;102505.84;5039261;28;20045;-78
2022/03/28 06:50:19;;;;;;;4.32;1.80;;;;;;;5.45;50.62;102509.97;5024882;28;20043;-78
2022/03/28 06:52:46;;;;;;;2.95;1.13;;;;;;;5.61;49.85;102508.38;5040959;28;20056;-80
2022/03/28 06:55:12;;;;;;;4.38;1.63;;;;;;;5.78;50.11;102508.50;5025828;28;20087;-83
2022/03/28 06:57:38;;;;;;;4.25;1.50;;;;;;;5.71;49.98;102498.94;5029682;28;20498;-79
2022/03/28 07:00:06;;;;;;;2.47;1.23;;;;;;;5.73;49.61;102497.22;5003473;28;20400;-79
2022/03/28 07:02:32;;;;;;;2.05;1.38;;;;;;;5.82;49.99;102492.09;5040748;28;20140;-79
2022/03/28 07:04:57;;;;;;;4.68;1.50;;;;;;;5.87;49.71;102493.81;5022811;28;20506;-79
2022/03/28 07:07:23;;;;;;;4.65;1.42;;;;;;;5.87;49.67;102492.97;5025317;28;20133;-80
2022/03/28 07:09:49;;;;;;;1.20;0.60;;;;;;;5.97;48.78;102492.16;5042834;28;20044;-80
2022/03/28 07:12:17;;;;;;;3.78;0.95;;;;;;;5.96;47.81;102484.38;5026477;28;20049;-78
2022/03/28 07:14:43;;;;;;;1.50;0.73;;;;;;;5.86;48.24;102488.66;5046569;28;20025;-79
2022/03/28 07:17:11;;;;;;;5.30;0.70;;;;;;;5.69;48.97;102487.69;5041337;28;20041;-79
2022/03/28 07:19:36;;;;;;;4.07;0.82;;;;;;;5.99;48.54;102486.97;5050223;28;20028;-79
2022/03/28 07:22:04;;;;;;;5.03;0.63;;;;;;;6.06;48.26;102491.31;5044028;28;20036;-80
2022/03/28 07:24:30;;;;;;;3.67;0.82;;;;;;;6.11;48.29;102484.44;5045052;28;20083;-81
2022/03/28 07:26:55;;;;;;;2.47;0.70;;;;;;;6.12;48.04;102477.53;5013112;28;20859;-79
2022/03/28 07:29:21;;;;;;;12.93;1.23;;;;;;;5.96;47.80;102474.84;5027387;28;20564;-80
2022/03/28 07:31:48;;;;;;;7.95;1.52;;;;;;;6.08;47.05;102467.13;5024010;28;20025;-76
2022/03/28 07:36:59;;;;;;;2.30;0.50;;;;;;;6.17;47.72;102457.63;5032308;28;20037;-81
2022/03/28 07:39:25;;;;;;;2.88;0.90;;;;;;;5.99;47.95;102459.28;5026856;28;20033;-79
2022/03/28 07:41:51;;;;;;;4.35;0.57;;;;;;;6.12;47.56;102465.41;5021708;28;20059;-78
2022/03/28 07:44:18;;;;;;;3.00;0.45;;;;;;;6.27;46.94;102459.41;5025862;28;20612;-83
2022/03/28 07:46:44;;;;;;;2.80;1.27;;;;;;;6.45;46.29;102463.81;5026918;28;20059;-78
2022/03/28 07:49:11;;;;;;;3.38;0.88;;;;;;;6.65;46.35;102469.94;5029116;28;20037;-81
2022/03/28 07:51:37;;;;;;;3.42;1.15;;;;;;;6.46;46.28;102458.63;5041714;28;20033;-77
2022/03/28 07:54:02;;;;;;;5.65;0.65;;;;;;;6.67;45.34;102467.34;5043773;28;20040;-77
2022/03/28 07:56:28;;;;;;;4.55;0.52;;;;;;;6.52;46.55;102462.09;5041415;28;20505;-78
2022/03/28 07:58:53;;;;;;;2.00;0.70;;;;;;;6.52;45.89;102456.91;5019229;28;20105;-80
2022/03/28 08:01:19;;;;;;;4.45;0.57;;;;;;;6.27;46.41;102457.66;5039972;28;20106;-79
2022/03/28 08:03:44;;;;;;;2.53;0.63;;;;;;;6.59;46.15;102459.50;5021449;28;20076;-79
2022/03/28 08:06:10;;;;;;;2.17;0.60;;;;;;;6.66;46.09;102468.19;5021102;28;20059;-79
2022/03/28 08:08:36;;;;;;;1.65;0.47;;;;;;;6.86;45.43;102461.31;5022955;28;20036;-79
2022/03/28 08:11:02;;;;;;;3.67;0.75;;;;;;;7.17;44.65;102463.91;5046510;28;20033;-78
2022/03/28 08:13:28;;;;;;;2.95;0.90;;;;;;;7.24;44.18;102460.41;5021541;28;20455;-78
2022/03/28 08:15:53;;;;;;;2.55;1.05;;;;;;;7.32;44.46;102453.47;5021421;28;20460;-80
2022/03/28 08:18:19;;;;;;;4.03;0.65;;;;;;;7.28;44.08;102456.94;5042121;28;20124;-78
2022/03/28 08:20:45;;;;;;;4.28;1.65;;;;;;;6.95;44.45;102455.22;5040093;28;20044;-77
2022/03/28 08:23:11;;;;;;;1.42;0.47;;;;;;;6.47;46.12;102452.56;5038164;28;20075;-80
2022/03/28 08:25:36;;;;;;;1.67;0.60;;;;;;;6.54;46.56;102447.41;5022440;28;20035;-80
2022/03/28 08:28:02;;;;;;;4.10;0.70;;;;;;;6.50;45.73;102446.50;5019236;28;20041;-78
2022/03/28 08:30:28;;;;;;;5.40;0.85;;;;;;;6.65;46.92;102450.88;5030401;28;20032;-78
2022/03/28 08:32:55;;;;;;;2.47;0.55;;;;;;;6.80;46.51;102450.91;5018819;28;20076;-78
2022/03/28 08:35:21;;;;;;;1.98;0.85;;;;;;;6.99;46.62;102445.72;5020408;28;20043;-79
2022/03/28 08:37:47;;;;;;;4.07;1.25;;;;;;;7.28;45.29;102438.75;5034566;28;20111;-78
2022/03/28 08:40:15;;;;;;;2.78;0.95;;;;;;;7.68;45.36;102438.69;5023366;28;20739;-80
2022/03/28 08:42:41;;;;;;;3.72;0.65;;;;;;;7.69;43.42;102440.44;5026370;28;20072;-79
2022/03/28 08:45:08;;;;;;;2.80;0.60;;;;;;;7.62;43.97;102440.44;5042638;28;20064;-77
2022/03/28 08:47:37;;;;;;;2.58;0.77;;;;;;;7.48;43.46;102445.66;5039678;28;20128;-78
2022/03/28 08:50:04;;;;;;;3.70;1.10;;;;;;;7.73;42.36;102436.97;5025763;28;20934;-78
2022/03/28 08:52:29;;;;;;;2.00;1.05;;;;;;;7.50;43.11;102443.94;5023164;28;20041;-80
2022/03/28 08:54:55;;;;;;;2.30;1.00;;;;;;;7.69;43.17;102448.25;5019782;28;20528;-79
2022/03/28 08:57:20;;;;;;;6.25;1.60;;;;;;;7.50;43.50;102444.78;5020628;28;20491;-78
2022/03/28 08:59:46;;;;;;;4.07;1.75;;;;;;;7.77;42.90;102437.81;4998219;28;20052;-82
2022/03/28 09:02:41;;;;;;;10.02;1.88;;;;;;;7.74;42.69;102430.88;5023645;28;20128;-82
2022/03/28 09:05:31;;;;;;;2.42;0.80;;;;;;;7.87;42.49;102429.13;5043702;28;20040;-80
2022/03/28 09:07:58;;;;;;;5.22;1.00;;;;;;;8.06;43.06;102429.88;5006491;28;20093;-81
2022/03/28 09:10:25;;;;;;;2.63;0.80;;;;;;;8.08;42.87;102432.50;5040975;28;20039;-79
2022/03/28 09:13:16;;;;;;;2.83;1.00;;;;;;;7.88;42.31;102429.97;5041281;28;20053;-80
2022/03/28 09:15:52;;;;;;;5.90;1.40;;;;;;;8.23;42.54;102432.41;5022147;28;20029;-80
2022/03/28 09:18:22;;;;;;;3.72;1.20;;;;;;;8.47;41.82;102415.78;5039776;28;20064;-82
2022/03/28 09:20:54;;;;;;;2.20;0.90;;;;;;;8.25;42.02;102419.38;5046932;28;20645;-81
2022/03/28 09:23:33;;;;;;;5.82;1.25;;;;;;;8.53;40.37;102417.47;5007795;28;20045;-78
2022/03/28 09:26:06;;;;;;;8.18;1.67;;;;;;;8.50;41.11;102414.91;5048205;28;23474;-81
2022/03/28 09:28:39;;;;;;;2.65;1.17;;;;;;;8.26;41.02;102418.50;5027870;28;20160;-80
2022/03/28 09:31:37;;;;;;;3.15;1.20;;;;;;;8.05;41.89;102414.28;5024125;28;20600;-81
2022/03/28 09:34:08;;;;;;;5.38;1.35;;;;;;;8.37;41.52;102408.88;5041800;28;20081;-80
2022/03/28 09:36:48;;;;;;;3.92;1.25;;;;;;;8.53;40.88;102410.50;5025508;28;20036;-82
2022/03/28 09:39:18;;;;;;;8.90;1.58;;;;;;;8.66;40.49;102407.81;5027317;28;20055;-80
2022/03/28 09:42:00;;;;;;;2.30;1.27;;;;;;;8.62;39.79;102403.50;5029202;28;20115;-79
2022/03/28 09:44:40;;;;;;;7.40;2.38;;;;;;;8.67;40.11;102399.13;5040349;28;20045;-80
2022/03/28 09:47:12;;;;;;;4.07;1.50;;;;;;;8.54;41.76;102400.97;5030178;28;20402;-81
2022/03/28 09:49:39;;;;;;;4.82;1.33;;;;;;;9.27;39.69;102399.47;5039113;28;20044;-78
2022/03/28 09:52:11;;;;;;;4.88;1.85;;;;;;;9.25;38.68;102388.19;5023185;28;20045;-81
2022/03/28 09:54:54;;;;;;;7.05;1.55;;;;;;;9.54;39.57;102384.41;5043679;28;20025;-81
2022/03/28 09:57:23;;;;;;;7.68;2.75;;;;;;;9.29;38.72;102386.44;5029952;28;20041;-80
2022/03/28 09:59:50;;;;;;;2.47;1.38;;;;;;;9.63;38.23;102386.91;5024694;28;20179;-80
2022/03/28 10:02:25;;;;;;;7.68;2.08;;;;;;;9.21;38.58;102383.91;5043313;28;20123;-79
2022/03/28 10:04:53;;;;;;;5.63;1.85;;;;;;;9.29;37.95;102376.84;5024925;28;21456;-80
2022/03/28 10:07:20;;;;;;;2.47;1.38;;;;;;;9.57;38.48;102376.56;5026885;28;20495;-77
2022/03/28 10:09:47;;;;;;;4.85;1.77;;;;;;;10.06;37.17;102380.28;5042896;28;20482;-81
2022/03/28 10:12:13;;;;;;;4.82;2.10;;;;;;;9.90;37.17;102379.63;5026020;28;20075;-78
2022/03/28 10:14:39;;;;;;;6.43;1.90;;;;;;;9.84;39.51;102384.97;5043704;28;20076;-81
2022/03/28 10:17:06;;;;;;;2.03;1.48;;;;;;;9.50;38.45;102386.19;5025708;28;20137;-81
2022/03/28 10:19:34;;;;;;;7.38;2.50;;;;;;;9.80;37.55;102379.75;5020720;28;20047;-79
2022/03/28 10:22:03;;;;;;;9.48;2.90;;;;;;;9.74;38.15;102381.56;5039663;28;20037;-78
2022/03/28 10:24:33;;;;;;;9.20;2.78;;;;;;;9.54;38.16;102376.56;5040932;28;20155;-80
2022/03/28 10:27:00;;;;;;;5.10;2.08;;;;;;;9.50;38.86;102364.44;5038881;28;20354;-81
2022/03/28 10:29:45;;;;;;;7.63;2.25;;;;;;;9.04;38.82;102360.59;5027815;28;20068;-79
2022/03/28 10:32:19;;;;;;;4.28;1.88;;;;;;;9.39;39.68;102360.22;5043329;28;20053;-80
2022/03/28 10:34:48;;;;;;;4.75;1.85;;;;;;;10.17;38.14;102367.97;5044967;28;20295;-77
2022/03/28 10:37:27;;;;;;;4.15;2.08;;;;;;;9.73;38.84;102362.41;5019659;28;20407;-80
2022/03/28 10:40:11;;;;;;;3.75;1.55;;;;;;;9.88;37.44;102360.50;5009882;28;20052;-82
2022/03/28 10:42:38;;;;;;;2.85;1.60;;;;;;;10.09;37.94;102352.38;5026821;28;20049;-77
2022/03/28 10:45:07;;;;;;;4.38;1.85;;;;;;;9.93;37.61;102343.91;5025176;28;20025;-81
2022/03/28 10:47:50;;;;;;;4.28;2.55;;;;;;;10.00;37.56;102339.47;5021217;28;20041;-80
2022/03/28 10:50:24;;;;;;;2.58;1.42;;;;;;;10.11;37.59;102327.09;5021493;28;20072;-79
2022/03/28 10:53:10;;;;;;;5.75;1.70;;;;;;;10.15;37.92;102326.19;5019216;28;20044;-78
2022/03/28 10:55:56;;;;;;;3.80;2.38;;;;;;;10.19;37.34;102325.25;5020078;28;20924;-78
2022/03/28 10:58:35;;;;;;;5.25;2.75;;;;;;;10.53;36.07;102323.84;5021912;28;20052;-81
2022/03/28 11:01:11;;;;;;;4.93;1.67;;;;;;;10.81;36.10;102319.00;5023316;28;20053;-77
2022/03/28 11:03:47;;;;;;;9.13;2.47;;;;;;;11.56;35.26;102308.84;5018910;28;20064;-82
2022/03/28 11:06:14;;;;;;;3.28;1.98;;;;;;;11.74;35.80;102304.97;5037600;28;20029;-79
2022/03/28 11:08:45;;;;;;;6.32;1.65;;;;;;;11.44;35.33;102304.72;5020099;28;20048;-81
2022/03/28 11:11:15;;;;;;;3.53;1.97;;;;;;;11.30;34.66;102302.38;5022583;28;20120;-80
2022/03/28 11:13:41;;;;;;;7.35;2.47;;;;;;;11.13;34.98;102322.78;5031005;28;20045;-80
2022/03/28 11:16:19;;;;;;;3.53;2.35;;;;;;;10.92;36.11;102305.75;5022445;28;20028;-79
2022/03/28 11:19:05;;;;;;;6.30;2.72;;;;;;;11.12;35.28;102308.00;5023432;28;20053;-80
2022/03/28 11:21:30;;;;;;;5.45;2.50;;;;;;;10.97;36.02;102307.41;5025439;28;20039;-79
2022/03/28 11:24:09;;;;;;;5.03;2.28;;;;;;;11.05;36.12;102302.00;5003580;28;20037;-80
2022/03/28 11:26:36;;;;;;;5.72;2.65;;;;;;;10.54;36.79;102304.66;5022243;28;20044;-80
2022/03/28 11:29:06;;;;;;;4.53;2.50;;;;;;;10.46;36.26;102303.91;5017000;28;20422;-81
2022/03/28 11:31:31;;;;;;;4.55;3.22;;;;;;;9.91;38.27;102306.50;5023076;28;20124;-79
2022/03/28 11:33:58;;;;;;;4.93;2.75;;;;;;;9.80;38.77;102297.97;5025175;28;20198;-79
2022/03/28 11:36:30;;;;;;;4.15;3.42;;;;;;;10.22;38.67;102293.84;5044621;28;20123;-79